Time;durP1;ratioP1;P1;durP2;ratioP2;P2;SDS_P1;SDS_P2;PMS_P1;PMS_P2;Temp;Humidity;BMP_temperature;BMP_pressure;BME280_temperature;BME280_humidity;BME280_pressure;Samples;Min_cycle;Max_cycle;Signal;HPM_P1;HPM_P2
2023/02/15 00:01:22;;;;;;;48.28;27.98;;;;;;;-1.63;100.00;103015.03;5073572;28;20169;-77
2023/02/15 00:03:48;;;;;;;44.65;26.55;;;;;;;-1.67;100.00;103003.75;5073138;28;20024;-77
2023/02/15 00:06:14;;;;;;;37.05;23.30;;;;;;;-1.72;100.00;103008.13;5073575;28;20131;-77
2023/02/15 00:08:40;;;;;;;40.20;24.58;;;;;;;-1.78;100.00;103008.16;5073532;28;20464;-77
2023/02/15 00:11:13;;;;;;;37.35;22.08;;;;;;;-1.82;100.00;103003.81;5073244;28;20036;-77
2023/02/15 00:13:42;;;;;;;42.33;23.63;;;;;;;-1.85;100.00;103006.44;5073422;28;20381;-77
2023/02/15 00:16:12;;;;;;;42.92;24.02;;;;;;;-1.89;100.00;102994.28;5054891;28;20025;-77
2023/02/15 00:18:39;;;;;;;64.55;28.98;;;;;;;-1.89;100.00;102994.28;5073289;28;20024;-77
2023/02/15 00:21:09;;;;;;;70.60;32.35;;;;;;;-1.90;100.00;102987.31;5072677;28;20148;-77
2023/02/15 00:23:35;;;;;;;60.95;31.55;;;;;;;-1.91;100.00;102986.47;5073177;28;20072;-78
2023/02/15 00:26:09;;;;;;;60.58;29.05;;;;;;;-1.96;100.00;102986.50;5073027;28;20032;-78
2023/02/15 00:28:35;;;;;;;48.58;27.45;;;;;;;-2.00;100.00;102992.59;5072938;28;20024;-78
2023/02/15 00:31:11;;;;;;;46.13;25.38;;;;;;;-2.02;100.00;102988.22;5072386;28;20385;-78
2023/02/15 00:33:39;;;;;;;50.78;26.00;;;;;;;-2.00;100.00;102989.97;5072960;28;20082;-78
2023/02/15 00:36:07;;;;;;;53.33;26.73;;;;;;;-1.99;100.00;102981.25;5072468;28;20437;-77
2023/02/15 00:38:34;;;;;;;48.08;26.02;;;;;;;-2.00;100.00;102976.03;5072961;28;20024;-77
2023/02/15 00:41:02;;;;;;;52.60;26.77;;;;;;;-2.01;100.00;102983.00;5072368;28;20036;-78
2023/02/15 00:43:29;;;;;;;61.38;29.63;;;;;;;-2.01;100.00;102974.31;5072680;28;20024;-77
2023/02/15 00:45:55;;;;;;;59.92;30.75;;;;;;;-1.98;100.00;102975.16;5072598;28;20032;-78
2023/02/15 00:48:21;;;;;;;64.28;32.60;;;;;;;-1.98;100.00;102977.78;5054896;28;20029;-78
2023/02/15 00:50:54;;;;;;;67.65;33.05;;;;;;;-1.96;100.00;102977.78;5072678;28;20075;-77
2023/02/15 00:53:20;;;;;;;65.50;33.85;;;;;;;-1.95;100.00;102972.53;5072771;28;20035;-78
2023/02/15 00:55:46;;;;;;;75.13;33.70;;;;;;;-1.94;100.00;102973.44;5072556;28;20465;-77
2023/02/15 00:58:13;;;;;;;65.20;30.48;;;;;;;-1.92;100.00;102973.44;5072030;28;20028;-77
2023/02/15 01:00:40;;;;;;;60.17;32.25;;;;;;;-1.90;100.00;102974.28;5054472;28;20142;-77
2023/02/15 01:03:06;;;;;;;65.13;34.60;;;;;;;-1.83;100.00;102968.16;5054041;28;20040;-77
2023/02/15 01:05:32;;;;;;;75.80;32.95;;;;;;;-1.80;100.00;102965.53;5072250;28;20032;-77
2023/02/15 01:07:58;;;;;;;73.00;33.72;;;;;;;-1.72;100.00;102965.50;5072166;28;20044;-78
2023/02/15 01:10:24;;;;;;;72.95;35.35;;;;;;;-1.66;100.00;102966.31;5072531;28;20037;-78
2023/02/15 01:12:50;;;;;;;56.60;33.67;;;;;;;-1.61;100.00;102966.31;5072276;28;20090;-77
2023/02/15 01:15:16;;;;;;;56.28;33.63;;;;;;;-1.61;100.00;102963.72;5071974;28;20107;-78
2023/02/15 01:17:43;;;;;;;60.17;33.50;;;;;;;-1.64;100.00;102963.72;5072164;28;20083;-77
2023/02/15 01:20:09;;;;;;;52.38;32.67;;;;;;;-1.67;100.00;102961.09;5054011;28;20036;-77
2023/02/15 01:22:35;;;;;;;49.42;31.65;;;;;;;-1.71;100.00;102956.78;5072405;28;20099;-77
2023/02/15 01:25:00;;;;;;;59.63;32.50;;;;;;;-1.72;100.00;102958.53;5072111;28;20522;-77
2023/02/15 01:27:25;;;;;;;53.50;31.85;;;;;;;-1.68;100.00;102949.81;5072453;28;20031;-77
2023/02/15 01:29:53;;;;;;;56.55;32.67;;;;;;;-1.66;100.00;102949.78;5072296;28;20036;-77
2023/02/15 01:32:18;;;;;;;45.83;30.55;;;;;;;-1.69;100.00;102944.59;5071928;28;20052;-77
2023/02/15 01:34:44;;;;;;;48.45;32.05;;;;;;;-1.75;100.00;102944.63;5072325;28;20064;-77
2023/02/15 01:37:09;;;;;;;46.75;29.00;;;;;;;-1.82;100.00;102944.66;5071506;28;20032;-76
2023/02/15 01:39:35;;;;;;;48.40;30.73;;;;;;;-1.89;100.00;102942.09;5072214;28;20149;-76
2023/02/15 01:42:00;;;;;;;42.88;28.90;;;;;;;-1.95;100.00;102941.22;5053676;28;20060;-76
2023/02/15 01:45:17;;;;;;;44.63;28.63;;;;;;;-2.01;100.00;102935.19;5072308;28;20115;-77
2023/02/15 01:47:47;;;;;;;43.60;28.08;;;;;;;-2.03;100.00;102939.53;5010094;28;20140;-77
2023/02/15 01:50:31;;;;;;;45.30;28.38;;;;;;;-2.05;100.00;102931.72;5067969;28;20082;-76
2023/02/15 01:53:25;;;;;;;42.95;28.08;;;;;;;-2.08;100.00;102934.34;5073221;28;20097;-76
2023/02/15 01:56:08;;;;;;;43.08;24.95;;;;;;;-2.13;100.00;102931.75;5068803;28;20060;-75
2023/02/15 01:58:36;;;;;;;54.25;31.80;;;;;;;-2.17;100.00;102937.84;5073968;28;20449;-75
2023/02/15 02:01:07;;;;;;;40.78;26.20;;;;;;;-2.20;100.00;102937.00;5071650;28;20040;-76
2023/02/15 02:03:47;;;;;;;51.65;32.35;;;;;;;-2.23;100.00;102932.66;5071651;28;20067;-75
2023/02/15 02:06:13;;;;;;;47.65;28.52;;;;;;;-2.25;100.00;102933.56;5071687;28;20064;-76
2023/02/15 02:08:39;;;;;;;46.53;28.70;;;;;;;-2.28;100.00;102925.69;5074875;28;20107;-76
2023/02/15 02:11:13;;;;;;;52.45;31.90;;;;;;;-2.34;100.00;102918.78;5074883;28;20028;-77
2023/02/15 02:13:41;;;;;;;51.17;32.10;;;;;;;-2.40;100.00;102911.84;5075366;28;20029;-76
2023/02/15 02:16:21;;;;;;;38.25;25.63;;;;;;;-2.46;100.00;102911.88;5074996;28;20484;-76
2023/02/15 02:18:58;;;;;;;41.40;26.63;;;;;;;-2.51;100.00;102911.00;5057812;28;20036;-76
2023/02/15 02:21:50;;;;;;;42.28;25.60;;;;;;;-2.53;100.00;102912.75;5056873;28;20456;-76
2023/02/15 02:24:40;;;;;;;38.03;25.08;;;;;;;-2.56;100.00;102905.81;5074987;28;20055;-76
2023/02/15 02:27:33;;;;;;;37.78;24.95;;;;;;;-2.55;100.00;102898.88;5074827;28;20469;-76
2023/02/15 02:30:26;;;;;;;35.80;22.42;;;;;;;-2.58;100.00;102899.75;5075533;28;20032;-76
2023/02/15 02:33:04;;;;;;;35.60;22.98;;;;;;;-2.61;100.00;102889.31;5057473;28;20028;-76
2023/02/15 02:35:48;;;;;;;38.30;24.10;;;;;;;-2.62;100.00;102897.16;5074604;28;20082;-76
2023/02/15 02:38:28;;;;;;;43.80;28.65;;;;;;;-2.61;100.00;102884.13;5074808;28;20028;-76
2023/02/15 02:41:07;;;;;;;40.60;26.85;;;;;;;-2.61;100.00;102884.13;5075008;28;20056;-76
2023/02/15 02:43:51;;;;;;;41.42;27.08;;;;;;;-2.61;100.00;102883.22;5075233;28;20384;-76
2023/02/15 02:46:22;;;;;;;48.92;30.27;;;;;;;-2.60;100.00;102891.03;5074440;28;20480;-76
2023/02/15 02:48:49;;;;;;;57.58;32.55;;;;;;;-2.57;100.00;102880.59;5075205;28;20029;-76
2023/02/15 02:51:21;;;;;;;60.17;33.65;;;;;;;-2.51;100.00;102880.59;5074534;28;20036;-76
2023/02/15 02:53:49;;;;;;;63.22;34.90;;;;;;;-2.45;100.00;102878.84;5075144;28;20056;-76
2023/02/15 02:56:33;;;;;;;56.20;32.17;;;;;;;-2.44;100.00;102872.75;5057059;28;20113;-77
2023/02/15 02:59:40;;;;;;;60.33;33.35;;;;;;;-2.45;100.00;102873.63;5074737;28;20028;-76
2023/02/15 03:02:13;;;;;;;60.20;33.08;;;;;;;-2.47;100.00;102871.03;5066755;28;20049;-76
2023/02/15 03:04:45;;;;;;;56.45;33.10;;;;;;;-2.49;100.00;102859.75;5075019;28;20040;-76
2023/02/15 03:07:21;;;;;;;52.58;32.65;;;;;;;-2.52;100.00;102868.44;5074350;28;20056;-76
2023/02/15 03:09:51;;;;;;;53.92;31.95;;;;;;;-2.55;100.00;102859.78;5056734;28;20392;-76
2023/02/15 03:12:31;;;;;;;46.55;27.73;;;;;;;-2.60;100.00;102864.97;5073794;28;20055;-77
2023/02/15 03:15:01;;;;;;;56.22;31.10;;;;;;;-2.64;100.00;102860.66;5074625;28;20043;-76
2023/02/15 03:17:30;;;;;;;48.70;28.88;;;;;;;-2.66;100.00;102859.78;5073866;28;20070;-77
2023/02/15 03:20:01;;;;;;;50.20;28.65;;;;;;;-2.70;100.00;102858.94;5056208;28;20052;-76
2023/02/15 03:22:36;;;;;;;79.57;37.10;;;;;;;-2.67;100.00;102853.72;5074003;28;20042;-77
2023/02/15 03:25:17;;;;;;;60.47;34.28;;;;;;;-2.67;100.00;102852.84;5074352;28;20036;-77
2023/02/15 03:27:47;;;;;;;54.10;31.42;;;;;;;-2.72;100.00;102846.78;5074090;28;20032;-76
2023/02/15 03:30:18;;;;;;;56.08;30.83;;;;;;;-2.75;100.00;102847.63;5073891;28;20112;-79
2023/02/15 03:32:47;;;;;;;53.67;31.80;;;;;;;-2.78;100.00;102847.66;5056572;28;20482;-76
2023/02/15 03:35:12;;;;;;;56.80;32.88;;;;;;;-2.82;100.00;102848.56;5073973;28;20024;-76
2023/02/15 03:37:52;;;;;;;48.92;27.15;;;;;;;-2.87;100.00;102837.25;5073631;28;20056;-77
2023/02/15 03:43:24;;;;;;;60.35;32.42;;;;;;;-2.95;100.00;102832.06;5073726;28;20040;-77
2023/02/15 03:45:55;;;;;;;71.45;33.78;;;;;;;-2.98;100.00;102829.47;5074051;28;20070;-76
2023/02/15 03:48:29;;;;;;;49.47;28.63;;;;;;;-3.03;100.00;102821.66;5073917;28;20031;-77
2023/02/15 03:53:47;;;;;;;59.38;31.33;;;;;;;-3.10;100.00;102819.09;5058546;28;20492;-77
2023/02/15 03:56:12;;;;;;;48.75;27.70;;;;;;;-3.12;100.00;102810.38;5073946;28;20103;-76
2023/02/15 04:04:17;;;;;;;49.28;27.42;;;;;;;-3.18;100.00;102808.66;5073680;28;20040;-77
2023/02/15 04:06:43;;;;;;;47.53;27.10;;;;;;;-3.19;100.00;102807.78;5073709;28;20035;-77
2023/02/15 04:11:53;;;;;;;42.13;24.60;;;;;;;-3.21;100.00;102803.44;5073478;28;20063;-76
2023/02/15 04:17:06;;;;;;;48.25;28.88;;;;;;;-3.27;100.00;102790.44;5073637;28;20047;-77
2023/02/15 04:25:14;;;;;;;41.92;24.23;;;;;;;-3.37;100.00;102792.22;5073367;28;20067;-77
2023/02/15 04:27:52;;;;;;;41.03;24.45;;;;;;;-3.41;100.00;102786.13;5072824;28;20499;-76
2023/02/15 04:30:22;;;;;;;38.45;23.27;;;;;;;-3.42;100.00;102792.22;5072565;28;20107;-76
2023/02/15 04:32:47;;;;;;;40.17;25.88;;;;;;;-3.45;100.00;102787.03;5073191;28;20032;-75
2023/02/15 04:35:13;;;;;;;36.97;23.00;;;;;;;-3.47;100.00;102796.53;5055022;28;20048;-77
2023/02/15 04:37:39;;;;;;;38.15;23.77;;;;;;;-3.48;100.00;102796.53;5072597;28;20029;-77
2023/02/15 04:40:06;;;;;;;36.80;22.67;;;;;;;-3.51;100.00;102789.59;5072767;28;20025;-77
2023/02/15 04:42:31;;;;;;;37.70;21.45;;;;;;;-3.52;100.00;102795.69;5072479;28;20060;-77
2023/02/15 04:44:57;;;;;;;33.10;22.80;;;;;;;-3.53;100.00;102782.69;5072381;28;20461;-76
2023/02/15 04:47:23;;;;;;;34.08;22.25;;;;;;;-3.55;100.00;102793.94;5072632;28;20067;-77
2023/02/15 04:49:49;;;;;;;32.80;22.13;;;;;;;-3.56;100.00;102775.72;5054934;28;20032;-76
2023/02/15 04:52:14;;;;;;;34.45;21.08;;;;;;;-3.59;100.00;102778.34;5072975;28;20036;-76
2023/02/15 04:54:40;;;;;;;33.88;20.95;;;;;;;-3.60;100.00;102776.59;5072151;28;20086;-78
2023/02/15 04:57:06;;;;;;;33.97;21.63;;;;;;;-3.61;100.00;102782.69;5072407;28;20033;-77
2023/02/15 04:59:31;;;;;;;34.40;22.40;;;;;;;-3.61;100.00;102782.69;5072079;28;20067;-78
2023/02/15 05:01:57;;;;;;;37.13;24.65;;;;;;;-3.63;100.00;102781.81;5072560;28;20064;-77
2023/02/15 05:04:22;;;;;;;31.52;21.27;;;;;;;-3.65;100.00;102781.81;5072189;28;20117;-77
2023/02/15 05:06:47;;;;;;;39.53;26.02;;;;;;;-3.65;100.00;102788.75;5071984;28;20078;-77
2023/02/15 05:09:13;;;;;;;33.97;22.65;;;;;;;-3.66;100.00;102781.81;5054449;28;20068;-77
2023/02/15 05:11:39;;;;;;;33.78;21.00;;;;;;;-3.69;100.00;102777.44;5072123;28;20039;-77
2023/02/15 05:14:04;;;;;;;32.25;21.52;;;;;;;-3.73;100.00;102767.94;5072204;28;20087;-77
2023/02/15 05:16:30;;;;;;;34.30;22.17;;;;;;;-3.74;100.00;102771.41;5054122;28;20047;-77
2023/02/15 05:18:55;;;;;;;36.67;22.48;;;;;;;-3.75;100.00;102772.25;5072610;28;20149;-77
2023/02/15 05:21:20;;;;;;;32.33;21.58;;;;;;;-3.75;100.00;102775.75;5072107;28;20453;-77
2023/02/15 05:23:46;;;;;;;39.38;23.48;;;;;;;-3.77;100.00;102772.25;5072039;28;20093;-77
2023/02/15 05:29:00;;;;;;;32.45;20.88;;;;;;;-3.76;100.00;102765.34;5072477;28;20098;-77
2023/02/15 05:31:26;;;;;;;34.47;21.02;;;;;;;-3.78;100.00;102762.72;5072171;28;20115;-77
2023/02/15 05:33:51;;;;;;;37.95;24.30;;;;;;;-3.78;100.00;102765.31;5053943;28;20029;-77
2023/02/15 05:36:16;;;;;;;38.97;23.45;;;;;;;-3.80;100.00;102756.66;5072032;28;20047;-77
2023/02/15 05:38:42;;;;;;;36.25;22.20;;;;;;;-3.81;100.00;102749.69;5054140;28;20071;-77
2023/02/15 05:41:09;;;;;;;36.47;21.77;;;;;;;-3.80;100.00;102754.03;5072230;28;20040;-76
2023/02/15 05:43:34;;;;;;;35.20;21.33;;;;;;;-3.78;100.00;102743.63;5074953;28;20489;-76
2023/02/15 05:46:01;;;;;;;33.75;21.27;;;;;;;-3.80;100.00;102746.25;5076003;28;20115;-77
2023/02/15 05:48:27;;;;;;;37.35;22.10;;;;;;;-3.80;100.00;102746.25;5076222;28;20033;-76
2023/02/15 05:51:03;;;;;;;34.08;21.58;;;;;;;-3.81;100.00;102738.44;5075564;28;20050;-77
2023/02/15 05:53:31;;;;;;;35.10;22.27;;;;;;;-3.81;100.00;102739.28;5076174;28;20025;-77
2023/02/15 05:55:58;;;;;;;32.65;20.48;;;;;;;-3.80;100.00;102732.38;5075678;28;20063;-77
2023/02/15 05:58:28;;;;;;;32.83;21.23;;;;;;;-3.81;100.00;102735.84;5076080;28;20111;-76
2023/02/15 06:00:54;;;;;;;38.05;21.75;;;;;;;-3.82;100.00;102736.69;5075780;28;20028;-77
2023/02/15 06:03:19;;;;;;;37.80;20.55;;;;;;;-3.80;100.00;102734.97;5076048;28;20033;-76
2023/02/15 06:05:45;;;;;;;33.92;20.88;;;;;;;-3.81;100.00;102734.09;5075617;28;20028;-76
2023/02/15 06:08:10;;;;;;;31.27;20.45;;;;;;;-3.81;100.00;102733.25;5075773;28;20033;-76
2023/02/15 06:10:35;;;;;;;44.83;27.23;;;;;;;-3.81;100.00;102735.84;5075451;28;20111;-77
2023/02/15 06:13:01;;;;;;;51.65;27.98;;;;;;;-3.81;100.00;102739.28;5075695;28;20046;-77
2023/02/15 06:15:26;;;;;;;44.20;25.23;;;;;;;-3.80;100.00;102751.44;5057992;28;20437;-76
2023/02/15 06:17:52;;;;;;;40.08;23.48;;;;;;;-3.78;100.00;102747.09;5057491;28;20056;-76
2023/02/15 06:20:17;;;;;;;38.03;22.25;;;;;;;-3.79;100.00;102748.00;5075566;28;20032;-76
2023/02/15 06:22:42;;;;;;;38.00;22.52;;;;;;;-3.78;100.00;102747.09;5075364;28;20145;-76
2023/02/15 06:25:09;;;;;;;37.50;22.05;;;;;;;-3.80;100.00;102754.03;5075688;28;20028;-76
2023/02/15 06:27:38;;;;;;;40.60;22.58;;;;;;;-3.78;100.00;102751.44;5075728;28;20039;-76
2023/02/15 06:30:05;;;;;;;41.13;21.67;;;;;;;-3.79;100.00;102752.31;5075629;28;20033;-77
2023/02/15 06:32:31;;;;;;;36.55;21.02;;;;;;;-3.80;100.00;102743.66;5075633;28;20170;-76
2023/02/15 06:34:56;;;;;;;42.83;23.77;;;;;;;-3.79;100.00;102744.50;5075532;28;20435;-76
2023/02/15 06:37:22;;;;;;;36.03;21.58;;;;;;;-3.80;100.00;102743.66;5075752;28;20485;-77
2023/02/15 06:39:47;;;;;;;38.83;20.50;;;;;;;-3.80;100.00;102745.38;5075757;28;20054;-76
2023/02/15 06:42:13;;;;;;;35.28;21.55;;;;;;;-3.80;100.00;102741.03;5075851;28;20098;-76
2023/02/15 06:44:38;;;;;;;38.35;21.70;;;;;;;-3.81;100.00;102741.91;5075664;28;20039;-76
2023/02/15 06:47:04;;;;;;;38.60;20.65;;;;;;;-3.83;100.00;102740.19;5075116;28;20037;-77
2023/02/15 06:49:29;;;;;;;36.70;21.80;;;;;;;-3.84;100.00;102738.44;5074891;28;20039;-77
2023/02/15 06:51:54;;;;;;;37.70;21.70;;;;;;;-3.84;100.00;102733.25;5056803;28;20037;-76
2023/02/15 06:54:20;;;;;;;39.53;21.25;;;;;;;-3.80;100.00;102729.78;5074624;28;20033;-75
2023/02/15 06:56:45;;;;;;;40.60;22.73;;;;;;;-3.80;100.00;102724.56;5074526;28;20420;-76
2023/02/15 06:59:10;;;;;;;44.17;23.40;;;;;;;-3.80;100.00;102728.03;5057020;28;20037;-76
2023/02/15 07:01:36;;;;;;;46.92;24.48;;;;;;;-3.78;100.00;102726.28;5074813;28;20033;-75
2023/02/15 07:04:02;;;;;;;57.60;27.90;;;;;;;-3.76;100.00;102723.72;5074227;28;20040;-75
2023/02/15 07:06:31;;;;;;;49.50;26.63;;;;;;;-3.73;100.00;102721.09;5077072;28;20119;-75
2023/02/15 07:08:56;;;;;;;52.60;26.08;;;;;;;-3.66;100.00;102724.56;5074453;28;20037;-76
2023/02/15 07:14:06;;;;;;;43.25;24.33;;;;;;;-3.57;100.00;102721.94;5074814;28;20076;-74
2023/02/15 07:16:31;;;;;;;56.03;28.48;;;;;;;-3.51;100.00;102715.88;5074717;28;20453;-73
2023/02/15 07:18:56;;;;;;;69.25;33.70;;;;;;;-3.44;100.00;102715.84;5057031;28;20380;-79
2023/02/15 07:21:22;;;;;;;64.78;31.63;;;;;;;-3.38;100.00;102718.44;5054649;28;20167;-76
2023/02/15 07:23:47;;;;;;;57.60;30.60;;;;;;;-3.32;100.00;102701.94;5053305;28;20479;-76
2023/02/15 07:26:13;;;;;;;57.15;30.15;;;;;;;-3.24;100.00;102707.13;5071399;28;20039;-73
2023/02/15 07:28:42;;;;;;;53.30;29.08;;;;;;;-3.17;100.00;102707.97;5074994;28;20039;-75
2023/02/15 07:31:08;;;;;;;55.22;28.02;;;;;;;-3.08;100.00;102710.53;5063914;28;20492;-78
2023/02/15 07:33:34;;;;;;;60.67;29.80;;;;;;;-3.01;100.00;102707.91;5092178;28;20032;-75
2023/02/15 07:36:02;;;;;;;51.90;27.83;;;;;;;-2.92;100.00;102709.63;5091045;28;20118;-76
2023/02/15 07:38:35;;;;;;;50.03;26.90;;;;;;;-2.82;100.00;102707.84;5090902;28;20369;-74
2023/02/15 07:41:11;;;;;;;70.78;32.92;;;;;;;-2.71;100.00;102713.00;5091405;28;20109;-76
2023/02/15 07:43:42;;;;;;;62.22;31.88;;;;;;;-2.62;100.00;102709.47;5092762;28;20028;-75
2023/02/15 07:46:11;;;;;;;65.57;33.30;;;;;;;-2.53;100.00;102707.69;5093345;28;20039;-75
2023/02/15 07:48:38;;;;;;;74.00;33.40;;;;;;;-2.43;100.00;102713.72;5091559;28;20064;-75
2023/02/15 07:51:05;;;;;;;73.07;34.45;;;;;;;-2.34;100.00;102711.03;5091243;28;20123;-76
2023/02/15 07:53:31;;;;;;;73.20;34.50;;;;;;;-2.22;100.00;102715.31;5092718;28;20106;-74
2023/02/15 07:56:00;;;;;;;69.05;35.47;;;;;;;-1.97;100.00;102709.88;5090973;28;20601;-76
2023/02/15 07:58:50;;;;;;;83.90;37.15;;;;;;;-1.72;100.00;102707.94;5091236;28;20067;-75
2023/02/15 08:01:11;;;;;;;95.45;39.58;;;;;;;-1.41;100.00;102705.03;5090675;28;20105;-75
2023/02/15 08:03:37;;;;;;;124.80;47.03;;;;;;;-1.14;100.00;102701.25;5092373;28;20396;-75
2023/02/15 08:06:02;;;;;;;106.18;44.85;;;;;;;-0.92;100.00;102701.00;5089602;28;20035;-76
2023/02/15 08:08:31;;;;;;;100.95;42.97;;;;;;;-0.73;100.00;102705.09;5072583;28;20085;-75
2023/02/15 08:13:56;;;;;;;104.38;44.22;;;;;;;-0.37;100.00;102695.00;5090907;28;20435;-76
2023/02/15 08:16:27;;;;;;;103.80;44.45;;;;;;;-0.25;100.00;102699.19;5072648;28;20075;-76
2023/02/15 08:18:53;;;;;;;;;;;;;;;-0.11;100.00;102696.34;5090097;28;20081;-74
2023/02/15 08:21:20;;;;;;;86.05;40.70;;;;;;;0.04;100.00;102695.22;5072382;28;20011;-75
2023/02/15 08:23:46;;;;;;;90.13;43.47;;;;;;;0.17;100.00;102694.13;5090118;28;20492;-76
2023/02/15 08:26:11;;;;;;;93.20;43.78;;;;;;;0.29;100.00;102695.66;5090530;28;20048;-76
2023/02/15 08:28:37;;;;;;;105.82;45.88;;;;;;;0.41;100.00;102696.34;5090793;28;20035;-76
2023/02/15 08:31:10;;;;;;;108.22;46.03;;;;;;;0.52;100.00;102689.16;5090358;28;20452;-76
2023/02/15 08:33:38;;;;;;;107.25;46.75;;;;;;;0.62;100.00;102690.69;5091439;28;20028;-75
2023/02/15 08:36:09;;;;;;;101.13;46.10;;;;;;;0.70;100.00;102687.94;5090258;28;20123;-74
2023/02/15 08:38:35;;;;;;;;;;;;;;;0.81;100.00;102690.34;5091119;28;20043;-76
2023/02/15 08:41:10;;;;;;;115.05;45.03;;;;;;;0.95;100.00;102690.91;5090140;28;19916;-78
2023/02/15 08:43:35;;;;;;;92.40;44.63;;;;;;;1.07;100.00;102688.97;5072227;28;20101;-78
2023/02/15 08:46:00;;;;;;;102.65;45.25;;;;;;;1.23;100.00;102700.84;5089835;28;20488;-75
2023/02/15 08:48:26;;;;;;;92.97;45.15;;;;;;;1.34;100.00;102693.59;5090440;28;20032;-76
2023/02/15 08:50:51;;;;;;;103.60;46.90;;;;;;;1.43;100.00;102687.28;5090112;28;20114;-73
2023/02/15 08:53:21;;;;;;;94.65;45.08;;;;;;;1.53;100.00;102696.66;5089949;28;20089;-74
2023/02/15 08:55:46;;;;;;;95.28;45.00;;;;;;;1.67;100.00;102711.22;5090378;28;20058;-74
2023/02/15 08:58:12;;;;;;;85.03;44.20;;;;;;;1.79;100.00;102710.94;5089562;28;20028;-74
2023/02/15 09:00:38;;;;;;;107.50;45.90;;;;;;;1.91;100.00;102704.53;5089746;28;20119;-76
2023/02/15 09:03:03;;;;;;;95.40;43.70;;;;;;;2.04;100.00;102698.06;5071445;28;20111;-77
2023/02/15 09:05:29;;;;;;;104.10;46.92;;;;;;;2.19;100.00;102690.72;5090369;28;20028;-74
2023/02/15 09:07:54;;;;;;;96.95;43.75;;;;;;;2.36;100.00;102695.53;5071702;28;20392;-75
2023/02/15 09:10:20;;;;;;;85.05;43.88;;;;;;;2.55;100.00;102690.66;5089573;28;20039;-74
2023/02/15 09:12:45;;;;;;;93.93;44.92;;;;;;;2.73;100.00;102689.28;5089773;28;20036;-76
2023/02/15 09:15:11;;;;;;;80.68;41.83;;;;;;;2.86;100.00;102685.41;5071206;28;20035;-74
2023/02/15 09:17:36;;;;;;;80.30;41.30;;;;;;;2.99;100.00;102688.53;5071473;28;20043;-75
2023/02/15 09:20:02;;;;;;;90.10;43.22;;;;;;;3.17;100.00;102701.16;5088774;28;20043;-76
2023/02/15 09:22:28;;;;;;;78.28;42.58;;;;;;;3.33;100.00;102685.75;5071635;28;20111;-76
2023/02/15 09:24:53;;;;;;;75.47;43.28;;;;;;;3.50;100.00;102687.88;5089803;28;20080;-76
2023/02/15 09:27:18;;;;;;;86.38;42.78;;;;;;;3.67;100.00;102684.72;5089312;28;20043;-75
2023/02/15 09:29:44;;;;;;;86.78;43.65;;;;;;;3.89;100.00;102679.59;5089781;28;20111;-75
2023/02/15 09:32:14;;;;;;;83.93;43.00;;;;;;;4.08;100.00;102671.09;5071206;28;20480;-75
2023/02/15 09:34:40;;;;;;;76.15;40.70;;;;;;;4.32;100.00;102676.44;5089659;28;20523;-76
2023/02/15 09:37:06;;;;;;;81.03;43.30;;;;;;;4.55;100.00;102665.94;5089656;28;20032;-76
2023/02/15 09:39:31;;;;;;;87.47;42.03;;;;;;;4.75;100.00;102670.47;5089623;28;20086;-75
2023/02/15 09:42:22;;;;;;;76.10;41.70;;;;;;;5.17;100.00;102668.06;5089414;28;20040;-74
2023/02/15 09:45:08;;;;;;;75.78;40.92;;;;;;;5.67;100.00;102673.09;5089658;28;20036;-74
2023/02/15 09:47:46;;;;;;;69.93;39.65;;;;;;;6.08;100.00;102661.81;5089851;28;20106;-75
2023/02/15 09:50:11;;;;;;;72.00;39.60;;;;;;;6.68;100.00;102672.41;5089152;28;20032;-75
2023/02/15 09:52:52;;;;;;;69.82;38.42;;;;;;;7.20;100.00;102670.00;5089584;28;20043;-73
2023/02/15 09:55:48;;;;;;;65.85;38.00;;;;;;;7.91;100.00;102665.69;5088963;28;20032;-74
2023/02/15 09:58:23;;;;;;;65.53;35.03;;;;;;;8.33;100.00;102669.75;5046785;28;20079;-75
2023/02/15 10:01:19;;;;;;;66.10;36.85;;;;;;;8.49;100.00;102658.38;5089150;28;20483;-74
2023/02/15 10:04:00;;;;;;;61.28;35.85;;;;;;;8.94;100.00;102667.44;5065682;28;20060;-76
2023/02/15 10:06:33;;;;;;;;;;;;;;;9.42;100.00;102668.34;5051433;28;20318;-76
2023/02/15 10:09:01;;;;;;;62.95;36.38;;;;;;;9.62;100.00;102664.53;5051134;28;19916;-75
2023/02/15 10:11:55;;;;;;;63.40;36.13;;;;;;;9.91;100.00;102667.28;5051301;28;20111;-75
2023/02/15 10:15:02;;;;;;;62.38;35.67;;;;;;;10.50;100.00;102662.03;5031880;28;20481;-76
2023/02/15 10:17:50;;;;;;;62.88;35.53;;;;;;;10.79;100.00;102669.16;5051307;28;20354;-76
2023/02/15 10:20:44;;;;;;;64.55;34.53;;;;;;;10.66;100.00;102659.28;5050874;28;20385;-76
2023/02/15 10:23:17;;;;;;;61.28;35.42;;;;;;;10.39;100.00;102662.69;5051022;28;20377;-76
2023/02/15 10:25:53;;;;;;;59.45;34.50;;;;;;;10.50;100.00;102663.84;5033694;28;20120;-76
2023/02/15 10:28:25;;;;;;;64.68;35.10;;;;;;;10.26;100.00;102661.69;5051873;28;20493;-76
2023/02/15 10:30:56;;;;;;;62.80;34.67;;;;;;;10.38;100.00;102665.44;5054955;28;20039;-76
2023/02/15 10:33:40;;;;;;;60.42;34.97;;;;;;;10.16;100.00;102650.72;5054858;28;20549;-73
2023/02/15 10:36:24;;;;;;;59.97;34.60;;;;;;;9.80;100.00;102653.78;5055178;28;20036;-78
2023/02/15 10:38:56;;;;;;;61.92;33.97;;;;;;;9.97;100.00;102644.81;5055180;28;20044;-74
2023/02/15 10:41:50;;;;;;;60.92;33.83;;;;;;;10.04;100.00;102636.38;5052265;28;20079;-74
2023/02/15 10:44:15;;;;;;;57.20;35.40;;;;;;;10.16;100.00;102636.59;5051286;28;20480;-74
2023/02/15 10:46:57;;;;;;;65.05;33.63;;;;;;;10.37;100.00;102627.31;5051647;28;20195;-73
2023/02/15 10:49:34;;;;;;;;;;;;;;;10.50;100.00;102627.44;5051881;28;20029;-74
2023/02/15 10:52:02;;;;;;;54.10;31.30;;;;;;;11.05;100.00;102617.78;5051600;28;20024;-75
2023/02/15 10:54:49;;;;;;;62.40;32.47;;;;;;;11.39;100.00;102612.91;5033625;28;20444;-74
2023/02/15 10:57:38;;;;;;;57.95;33.47;;;;;;;11.26;100.00;102612.84;5050390;28;20484;-74
2023/02/15 11:00:15;;;;;;;56.70;32.28;;;;;;;11.31;100.00;102611.72;5052227;28;20112;-74
2023/02/15 11:02:47;;;;;;;59.17;33.22;;;;;;;11.52;100.00;102618.28;5051609;28;20029;-77
2023/02/15 11:05:28;;;;;;;59.10;32.80;;;;;;;11.33;100.00;102607.13;5037242;28;20064;-76
2023/02/15 11:07:57;;;;;;;57.10;31.77;;;;;;;11.34;100.00;102608.84;5055408;28;20036;-77
2023/02/15 11:10:54;;;;;;;61.40;32.40;;;;;;;11.31;100.00;102622.38;5054193;28;20162;-74
2023/02/15 11:13:24;;;;;;;61.53;32.88;;;;;;;11.06;100.00;102621.28;5051898;28;20072;-75
2023/02/15 11:16:05;;;;;;;62.22;32.45;;;;;;;10.96;100.00;102612.16;5033644;28;20419;-77
2023/02/15 11:18:30;;;;;;;61.00;33.92;;;;;;;10.70;100.00;102612.91;5051357;28;20090;-75
2023/02/15 11:21:08;;;;;;;58.38;33.17;;;;;;;10.43;100.00;102614.59;5051643;28;20029;-78
2023/02/15 11:23:38;;;;;;;59.05;33.20;;;;;;;10.30;100.00;102610.00;5049831;28;20051;-76
2023/02/15 11:26:12;;;;;;;60.45;32.95;;;;;;;10.12;100.00;102617.31;5051949;28;20037;-79
2023/02/15 11:28:42;;;;;;;60.13;32.38;;;;;;;10.10;100.00;102608.56;5032975;28;20395;-76
2023/02/15 11:31:32;;;;;;;58.53;32.38;;;;;;;10.06;100.00;102610.56;5051641;28;20070;-77
2023/02/15 11:34:04;;;;;;;58.97;33.30;;;;;;;10.21;100.00;102614.09;5051527;28;20032;-77
2023/02/15 11:36:37;;;;;;;54.20;32.33;;;;;;;10.31;100.00;102601.06;5051248;28;20047;-75
2023/02/15 11:39:10;;;;;;;60.50;31.50;;;;;;;10.27;100.00;102590.72;5051656;28;20029;-75
2023/02/15 11:41:40;;;;;;;57.97;31.42;;;;;;;10.21;100.00;102578.63;5050273;28;20086;-76
2023/02/15 11:44:17;;;;;;;56.20;30.35;;;;;;;10.48;100.00;102573.47;5051880;28;20048;-77
2023/02/15 11:46:43;;;;;;;51.67;28.67;;;;;;;10.52;100.00;102571.44;5050886;28;20036;-78
2023/02/15 11:49:20;;;;;;;49.63;29.17;;;;;;;10.44;100.00;102585.25;5050987;28;20033;-78
2023/02/15 11:51:45;;;;;;;52.95;29.55;;;;;;;10.52;100.00;102580.28;5051185;28;20075;-77